sensor_id;sensor_type;location;lat;lon;timestamp;pressure;altitude;pressure_sealevel;temperature;humidity
13456;BME280;6800;50.940;6.940;2023-04-30T00:03:42;101437.84;;;19.23;45.82
13456;BME280;6800;50.940;6.940;2023-04-30T00:07:43;101430.38;;;20.53;43.15
13456;BME280;6800;50.940;6.940;2023-04-30T00:11:45;101437.94;;;19.43;45.11
13456;BME280;6800;50.940;6.940;2023-04-30T00:15:46;101429.53;;;20.11;42.41
13456;BME280;6800;50.940;6.940;2023-04-30T00:19:48;101428.31;;;20.36;41.51
13456;BME280;6800;50.940;6.940;2023-04-30T00:23:50;101431.25;;;20.12;42.56
13456;BME280;6800;50.940;6.940;2023-04-30T00:27:51;101442.19;;;19.87;42.60
13456;BME280;6800;50.940;6.940;2023-04-30T00:31:53;101444.75;;;19.89;42.78
13456;BME280;6800;50.940;6.940;2023-04-30T00:35:54;101447.88;;;20.35;41.38
13456;BME280;6800;50.940;6.940;2023-04-30T00:39:55;101446.50;;;20.61;40.73
13456;BME280;6800;50.940;6.940;2023-04-30T00:43:57;101454.63;;;19.55;42.56
13456;BME280;6800;50.940;6.940;2023-04-30T00:47:59;101445.78;;;20.39;40.69
13456;BME280;6800;50.940;6.940;2023-04-30T00:52:00;101439.78;;;20.37;41.30
13456;BME280;6800;50.940;6.940;2023-04-30T00:56:02;101450.84;;;20.21;41.29
13456;BME280;6800;50.940;6.940;2023-04-30T01:00:04;101450.44;;;20.26;41.09
13456;BME280;6800;50.940;6.940;2023-04-30T01:04:06;101453.47;;;20.00;41.92
13456;BME280;6800;50.940;6.940;2023-04-30T01:08:08;101452.00;;;20.07;42.09
13456;BME280;6800;50.940;6.940;2023-04-30T01:12:20;101455.16;;;19.38;43.43
13456;BME280;6800;50.940;6.940;2023-04-30T01:16:28;101460.31;;;17.94;46.52
13456;BME280;6800;50.940;6.940;2023-04-30T01:20:32;101466.84;;;19.02;44.11
13456;BME280;6800;50.940;6.940;2023-04-30T01:28:49;101469.84;;;19.09;43.39
13456;BME280;6800;50.940;6.940;2023-04-30T01:32:51;101463.03;;;19.60;42.07
13456;BME280;6800;50.940;6.940;2023-04-30T01:45:32;101459.16;;;17.51;46.77
13456;BME280;6800;50.940;6.940;2023-04-30T01:49:57;101450.09;;;18.35;44.87
13456;BME280;6800;50.940;6.940;2023-04-30T01:54:11;101452.91;;;18.45;44.47
13456;BME280;6800;50.940;6.940;2023-04-30T01:58:16;101452.06;;;18.66;43.63
13456;BME280;6800;50.940;6.940;2023-04-30T02:02:17;101461.03;;;19.19;42.48
13456;BME280;6800;50.940;6.940;2023-04-30T02:06:19;101461.31;;;18.61;43.59
13456;BME280;6800;50.940;6.940;2023-04-30T02:10:22;101459.75;;;19.03;42.32
13456;BME280;6800;50.940;6.940;2023-04-30T02:14:24;101457.09;;;18.92;42.33
13456;BME280;6800;50.940;6.940;2023-04-30T02:18:25;101457.22;;;18.46;43.34
13456;BME280;6800;50.940;6.940;2023-04-30T02:22:26;101459.06;;;18.67;42.90
13456;BME280;6800;50.940;6.940;2023-04-30T02:26:28;101453.63;;;18.80;42.95
13456;BME280;6800;50.940;6.940;2023-04-30T02:30:29;101455.44;;;18.91;42.23
13456;BME280;6800;50.940;6.940;2023-04-30T02:34:31;101455.75;;;19.19;41.84
13456;BME280;6800;50.940;6.940;2023-04-30T02:38:32;101455.53;;;19.11;41.83
13456;BME280;6800;50.940;6.940;2023-04-30T02:42:33;101449.13;;;19.25;41.31
13456;BME280;6800;50.940;6.940;2023-04-30T02:46:35;101446.66;;;19.01;41.86
13456;BME280;6800;50.940;6.940;2023-04-30T02:50:36;101454.16;;;18.28;43.75
13456;BME280;6800;50.940;6.940;2023-04-30T02:54:37;101468.19;;;19.08;42.25
13456;BME280;6800;50.940;6.940;2023-04-30T02:58:39;101467.91;;;19.11;42.04
13456;BME280;6800;50.940;6.940;2023-04-30T03:02:41;101471.78;;;18.17;44.21
13456;BME280;6800;50.940;6.940;2023-04-30T03:06:42;101473.44;;;17.72;45.50
13456;BME280;6800;50.940;6.940;2023-04-30T03:10:44;101470.47;;;17.04;46.79
13456;BME280;6800;50.940;6.940;2023-04-30T03:14:45;101468.59;;;16.93;47.19
13456;BME280;6800;50.940;6.940;2023-04-30T03:18:48;101475.84;;;17.75;45.47
13456;BME280;6800;50.940;6.940;2023-04-30T03:22:49;101466.63;;;18.26;43.98
13456;BME280;6800;50.940;6.940;2023-04-30T03:26:50;101459.72;;;18.36;43.37
13456;BME280;6800;50.940;6.940;2023-04-30T03:30:52;101456.88;;;18.50;43.22
13456;BME280;6800;50.940;6.940;2023-04-30T03:34:53;101465.16;;;18.46;43.34
13456;BME280;6800;50.940;6.940;2023-04-30T03:38:54;101455.56;;;18.45;43.32
13456;BME280;6800;50.940;6.940;2023-04-30T03:42:56;101461.59;;;18.23;43.71
13456;BME280;6800;50.940;6.940;2023-04-30T03:46:57;101473.88;;;18.01;44.54
13456;BME280;6800;50.940;6.940;2023-04-30T03:50:58;101468.06;;;17.84;45.35
13456;BME280;6800;50.940;6.940;2023-04-30T03:55:00;101459.47;;;18.39;43.61
13456;BME280;6800;50.940;6.940;2023-04-30T03:59:01;101462.81;;;18.41;42.98
13456;BME280;6800;50.940;6.940;2023-04-30T04:03:03;101467.63;;;17.31;46.24
13456;BME280;6800;50.940;6.940;2023-04-30T04:07:04;101465.84;;;16.82;47.18
13456;BME280;6800;50.940;6.940;2023-04-30T04:11:11;101461.69;;;17.76;45.49
13456;BME280;6800;50.940;6.940;2023-04-30T04:15:12;101461.53;;;16.81;47.84
13456;BME280;6800;50.940;6.940;2023-04-30T04:19:14;101473.59;;;17.22;46.49
13456;BME280;6800;50.940;6.940;2023-04-30T04:23:15;101476.25;;;17.22;46.35
13456;BME280;6800;50.940;6.940;2023-04-30T04:27:16;101475.31;;;17.10;46.79
13456;BME280;6800;50.940;6.940;2023-04-30T04:31:18;101477.56;;;17.27;46.46
13456;BME280;6800;50.940;6.940;2023-04-30T04:35:20;101478.56;;;17.26;46.52
13456;BME280;6800;50.940;6.940;2023-04-30T04:39:22;101480.16;;;18.00;44.71
13456;BME280;6800;50.940;6.940;2023-04-30T04:43:23;101483.25;;;17.93;44.92
13456;BME280;6800;50.940;6.940;2023-04-30T04:47:25;101479.09;;;18.13;44.23
13456;BME280;6800;50.940;6.940;2023-04-30T04:51:27;101474.91;;;18.11;44.21
13456;BME280;6800;50.940;6.940;2023-04-30T04:55:28;101483.00;;;17.62;45.94
13456;BME280;6800;50.940;6.940;2023-04-30T04:59:29;101483.53;;;17.05;47.13
13456;BME280;6800;50.940;6.940;2023-04-30T05:03:32;101488.16;;;17.63;46.12
13456;BME280;6800;50.940;6.940;2023-04-30T05:07:33;101486.81;;;17.58;46.23
13456;BME280;6800;50.940;6.940;2023-04-30T05:11:35;101490.91;;;18.55;43.93
13456;BME280;6800;50.940;6.940;2023-04-30T05:15:36;101491.03;;;18.76;43.45
13456;BME280;6800;50.940;6.940;2023-04-30T05:19:38;101497.16;;;19.09;42.85
13456;BME280;6800;50.940;6.940;2023-04-30T05:23:39;101499.66;;;18.66;43.06
13456;BME280;6800;50.940;6.940;2023-04-30T05:27:41;101505.34;;;19.39;42.02
13456;BME280;6800;50.940;6.940;2023-04-30T05:31:42;101508.31;;;19.57;41.80
13456;BME280;6800;50.940;6.940;2023-04-30T05:35:44;101517.28;;;19.77;41.06
13456;BME280;6800;50.940;6.940;2023-04-30T05:39:45;101517.72;;;19.93;40.37
13456;BME280;6800;50.940;6.940;2023-04-30T05:43:46;101515.13;;;20.34;39.63
13456;BME280;6800;50.940;6.940;2023-04-30T05:47:48;101513.69;;;20.51;39.49
13456;BME280;6800;50.940;6.940;2023-04-30T05:51:49;101513.91;;;21.10;37.68
13456;BME280;6800;50.940;6.940;2023-04-30T05:55:50;101510.94;;;21.33;37.38
13456;BME280;6800;50.940;6.940;2023-04-30T05:59:52;101516.56;;;21.78;35.85
13456;BME280;6800;50.940;6.940;2023-04-30T06:03:55;101518.03;;;21.92;35.78
13456;BME280;6800;50.940;6.940;2023-04-30T06:07:56;101516.50;;;22.18;34.87
13456;BME280;6800;50.940;6.940;2023-04-30T06:11:58;101511.09;;;22.75;34.07
13456;BME280;6800;50.940;6.940;2023-04-30T06:15:59;101505.50;;;23.05;33.46
13456;BME280;6800;50.940;6.940;2023-04-30T06:20:00;101499.59;;;23.66;32.84
13456;BME280;6800;50.940;6.940;2023-04-30T06:24:06;101504.94;;;24.19;31.28
13456;BME280;6800;50.940;6.940;2023-04-30T06:28:08;101505.94;;;24.43;31.19
13456;BME280;6800;50.940;6.940;2023-04-30T06:32:10;101511.34;;;23.46;33.39
13456;BME280;6800;50.940;6.940;2023-04-30T06:36:11;101497.22;;;24.85;31.43
13456;BME280;6800;50.940;6.940;2023-04-30T06:40:13;101503.22;;;23.65;33.47
13456;BME280;6800;50.940;6.940;2023-04-30T06:44:14;101496.06;;;25.21;29.74
13456;BME280;6800;50.940;6.940;2023-04-30T06:48:16;101490.59;;;26.28;29.58
13456;BME280;6800;50.940;6.940;2023-04-30T06:52:17;101503.63;;;27.19;28.04
13456;BME280;6800;50.940;6.940;2023-04-30T06:56:19;101502.53;;;27.66;26.04
13456;BME280;6800;50.940;6.940;2023-04-30T07:00:22;101500.09;;;27.79;26.65
13456;BME280;6800;50.940;6.940;2023-04-30T07:04:23;101491.22;;;26.55;28.10
13456;BME280;6800;50.940;6.940;2023-04-30T07:08:24;101486.63;;;27.88;26.40
13456;BME280;6800;50.940;6.940;2023-04-30T07:12:26;101489.06;;;29.30;24.03
13456;BME280;6800;50.940;6.940;2023-04-30T07:16:27;101477.53;;;29.36;23.98
13456;BME280;6800;50.940;6.940;2023-04-30T07:20:29;101488.13;;;27.90;26.25
13456;BME280;6800;50.940;6.940;2023-04-30T07:24:30;101477.44;;;29.29;25.03
13456;BME280;6800;50.940;6.940;2023-04-30T07:28:32;101482.59;;;30.02;23.54
13456;BME280;6800;50.940;6.940;2023-04-30T07:32:34;101478.22;;;30.50;22.88
13456;BME280;6800;50.940;6.940;2023-04-30T07:36:36;101480.69;;;30.79;22.92
13456;BME280;6800;50.940;6.940;2023-04-30T07:40:38;101483.16;;;31.69;21.94
13456;BME280;6800;50.940;6.940;2023-04-30T07:44:40;101478.09;;;31.40;21.74
13456;BME280;6800;50.940;6.940;2023-04-30T07:48:41;101480.06;;;31.85;21.52
13456;BME280;6800;50.940;6.940;2023-04-30T07:52:43;101484.59;;;31.58;21.86
13456;BME280;6800;50.940;6.940;2023-04-30T07:56:44;101480.09;;;32.05;21.34
13456;BME280;6800;50.940;6.940;2023-04-30T08:00:46;101472.44;;;32.21;20.39
13456;BME280;6800;50.940;6.940;2023-04-30T08:04:47;101467.97;;;32.73;20.77
13456;BME280;6800;50.940;6.940;2023-04-30T08:08:49;101476.16;;;32.33;20.18
13456;BME280;6800;50.940;6.940;2023-04-30T08:12:51;101469.69;;;32.34;20.86
13456;BME280;6800;50.940;6.940;2023-04-30T08:16:53;101478.75;;;31.48;21.79
13456;BME280;6800;50.940;6.940;2023-04-30T08:20:54;101482.19;;;30.54;22.39
13456;BME280;6800;50.940;6.940;2023-04-30T08:24:56;101488.22;;;27.51;26.52
13456;BME280;6800;50.940;6.940;2023-04-30T08:28:57;101472.31;;;28.84;23.88
13456;BME280;6800;50.940;6.940;2023-04-30T08:32:59;101465.81;;;30.90;21.94
13456;BME280;6800;50.940;6.940;2023-04-30T08:37:00;101467.59;;;31.84;20.92
13456;BME280;6800;50.940;6.940;2023-04-30T08:41:13;101465.47;;;32.84;19.67
13456;BME280;6800;50.940;6.940;2023-04-30T08:45:16;101459.44;;;33.33;19.69
13456;BME280;6800;50.940;6.940;2023-04-30T08:49:18;101457.22;;;34.96;18.10
13456;BME280;6800;50.940;6.940;2023-04-30T08:53:20;101469.81;;;31.48;20.78
13456;BME280;6800;50.940;6.940;2023-04-30T08:57:22;101453.38;;;34.00;18.22
13456;BME280;6800;50.940;6.940;2023-04-30T09:01:24;101469.63;;;27.95;24.35
13456;BME280;6800;50.940;6.940;2023-04-30T09:05:25;101453.81;;;30.31;21.71
13456;BME280;6800;50.940;6.940;2023-04-30T09:09:28;101446.66;;;34.27;18.45
13456;BME280;6800;50.940;6.940;2023-04-30T09:13:39;101447.00;;;33.63;18.50
13456;BME280;6800;50.940;6.940;2023-04-30T09:17:41;101446.34;;;34.42;18.22
13456;BME280;6800;50.940;6.940;2023-04-30T09:21:42;101442.59;;;31.49;21.11
13456;BME280;6800;50.940;6.940;2023-04-30T09:25:44;101435.81;;;34.70;17.62
13456;BME280;6800;50.940;6.940;2023-04-30T09:29:45;101428.19;;;32.86;19.00
13456;BME280;6800;50.940;6.940;2023-04-30T09:33:47;101419.66;;;30.38;21.56
13456;BME280;6800;50.940;6.940;2023-04-30T09:37:48;101407.75;;;33.35;18.78
13456;BME280;6800;50.940;6.940;2023-04-30T09:41:50;101419.91;;;32.68;20.18
13456;BME280;6800;50.940;6.940;2023-04-30T09:45:52;101420.72;;;29.46;23.39
13456;BME280;6800;50.940;6.940;2023-04-30T09:49:53;101410.47;;;34.40;17.63
13456;BME280;6800;50.940;6.940;2023-04-30T09:53:55;101405.78;;;35.31;16.58
13456;BME280;6800;50.940;6.940;2023-04-30T09:57:57;101399.34;;;36.20;15.74
13456;BME280;6800;50.940;6.940;2023-04-30T10:02:02;101397.56;;;37.61;15.17
13456;BME280;6800;50.940;6.940;2023-04-30T10:06:03;101392.69;;;35.69;16.02
13456;BME280;6800;50.940;6.940;2023-04-30T10:10:09;101385.38;;;33.77;17.68
13456;BME280;6800;50.940;6.940;2023-04-30T10:14:12;101388.66;;;29.51;21.67
13456;BME280;6800;50.940;6.940;2023-04-30T10:18:30;101391.47;;;28.71;22.55
13456;BME280;6800;50.940;6.940;2023-04-30T10:22:34;101377.97;;;32.33;19.53
13456;BME280;6800;50.940;6.940;2023-04-30T10:26:36;101378.81;;;30.34;21.41
13456;BME280;6800;50.940;6.940;2023-04-30T10:30:38;101379.72;;;33.23;18.62
13456;BME280;6800;50.940;6.940;2023-04-30T10:38:51;101367.84;;;31.70;19.57
13456;BME280;6800;50.940;6.940;2023-04-30T10:42:53;101364.97;;;28.39;22.83
13456;BME280;6800;50.940;6.940;2023-04-30T10:47:05;101354.66;;;31.08;20.35
13456;BME280;6800;50.940;6.940;2023-04-30T10:51:07;101359.44;;;31.12;20.40
13456;BME280;6800;50.940;6.940;2023-04-30T10:55:09;101355.19;;;27.94;23.67
13456;BME280;6800;50.940;6.940;2023-04-30T10:59:12;101347.72;;;30.38;21.32
13456;BME280;6800;50.940;6.940;2023-04-30T11:03:13;101345.84;;;31.66;19.88
13456;BME280;6800;50.940;6.940;2023-04-30T11:07:15;101323.84;;;30.01;20.72
13456;BME280;6800;50.940;6.940;2023-04-30T11:11:17;101335.66;;;26.09;25.90
13456;BME280;6800;50.940;6.940;2023-04-30T11:15:25;101317.38;;;31.57;19.70
13456;BME280;6800;50.940;6.940;2023-04-30T11:19:27;101319.06;;;28.84;22.73
13456;BME280;6800;50.940;6.940;2023-04-30T11:23:32;101326.19;;;27.90;23.31
13456;BME280;6800;50.940;6.940;2023-04-30T11:27:42;101317.13;;;31.91;19.25
13456;BME280;6800;50.940;6.940;2023-04-30T11:31:45;101319.84;;;29.90;20.92
13456;BME280;6800;50.940;6.940;2023-04-30T11:35:50;101318.31;;;27.73;22.52
13456;BME280;6800;50.940;6.940;2023-04-30T11:39:53;101309.63;;;31.15;20.03
13456;BME280;6800;50.940;6.940;2023-04-30T11:43:56;101310.22;;;30.50;20.16
13456;BME280;6800;50.940;6.940;2023-04-30T11:47:58;101305.00;;;27.43;24.05
13456;BME280;6800;50.940;6.940;2023-04-30T11:52:00;101300.38;;;27.89;23.24
13456;BME280;6800;50.940;6.940;2023-04-30T11:56:02;101294.47;;;31.86;19.51
13456;BME280;6800;50.940;6.940;2023-04-30T12:00:12;101282.28;;;32.85;18.74
13456;BME280;6800;50.940;6.940;2023-04-30T12:04:14;101271.84;;;32.88;17.88
13456;BME280;6800;50.940;6.940;2023-04-30T12:08:18;101257.66;;;32.99;18.03
13456;BME280;6800;50.940;6.940;2023-04-30T12:12:28;101258.25;;;34.78;16.79
13456;BME280;6800;50.940;6.940;2023-04-30T12:16:44;101268.28;;;34.77;16.83
13456;BME280;6800;50.940;6.940;2023-04-30T12:20:46;101250.13;;;34.12;15.93
13456;BME280;6800;50.940;6.940;2023-04-30T12:24:48;101253.22;;;32.74;17.29
13456;BME280;6800;50.940;6.940;2023-04-30T12:28:51;101251.44;;;32.55;18.15
13456;BME280;6800;50.940;6.940;2023-04-30T12:32:56;101250.53;;;32.23;18.80
13456;BME280;6800;50.940;6.940;2023-04-30T12:36:58;101253.31;;;27.63;23.21
13456;BME280;6800;50.940;6.940;2023-04-30T12:41:03;101248.75;;;27.12;24.02
13456;BME280;6800;50.940;6.940;2023-04-30T12:45:05;101249.78;;;28.36;23.11
13456;BME280;6800;50.940;6.940;2023-04-30T12:49:07;101241.91;;;29.55;20.83
13456;BME280;6800;50.940;6.940;2023-04-30T12:53:08;101239.81;;;30.79;19.37
13456;BME280;6800;50.940;6.940;2023-04-30T12:57:11;101238.56;;;29.80;20.92
13456;BME280;6800;50.940;6.940;2023-04-30T13:01:16;101239.97;;;27.18;23.83
13456;BME280;6800;50.940;6.940;2023-04-30T13:05:18;101233.47;;;28.16;22.82
13456;BME280;6800;50.940;6.940;2023-04-30T13:09:19;101222.72;;;28.02;22.27
13456;BME280;6800;50.940;6.940;2023-04-30T13:13:22;101214.13;;;29.20;22.00
13456;BME280;6800;50.940;6.940;2023-04-30T13:17:23;101216.78;;;27.92;23.16
13456;BME280;6800;50.940;6.940;2023-04-30T13:21:26;101214.91;;;30.70;20.50
13456;BME280;6800;50.940;6.940;2023-04-30T13:25:30;101208.00;;;30.48;19.59
13456;BME280;6800;50.940;6.940;2023-04-30T13:29:32;101202.84;;;29.99;20.09
13456;BME280;6800;50.940;6.940;2023-04-30T13:33:33;101206.41;;;27.89;22.61
13456;BME280;6800;50.940;6.940;2023-04-30T13:37:35;101210.47;;;27.55;23.20
13456;BME280;6800;50.940;6.940;2023-04-30T13:41:36;101202.28;;;26.74;23.78
13456;BME280;6800;50.940;6.940;2023-04-30T13:45:38;101189.19;;;29.67;20.40
13456;BME280;6800;50.940;6.940;2023-04-30T13:49:39;101181.72;;;30.09;20.47
13456;BME280;6800;50.940;6.940;2023-04-30T13:53:40;101174.84;;;27.61;23.40
13456;BME280;6800;50.940;6.940;2023-04-30T13:57:42;101170.22;;;28.14;22.36
13456;BME280;6800;50.940;6.940;2023-04-30T14:01:43;101167.81;;;29.24;21.33
13456;BME280;6800;50.940;6.940;2023-04-30T14:05:44;101160.97;;;29.63;20.34
13456;BME280;6800;50.940;6.940;2023-04-30T14:09:46;101153.28;;;28.98;21.39
13456;BME280;6800;50.940;6.940;2023-04-30T14:13:48;101159.34;;;27.05;22.94
13456;BME280;6800;50.940;6.940;2023-04-30T14:17:49;101144.22;;;28.78;21.60
13456;BME280;6800;50.940;6.940;2023-04-30T14:21:52;101148.72;;;27.12;23.39
13456;BME280;6800;50.940;6.940;2023-04-30T14:25:53;101143.13;;;28.72;21.85
13456;BME280;6800;50.940;6.940;2023-04-30T14:29:55;101146.25;;;29.59;21.34
13456;BME280;6800;50.940;6.940;2023-04-30T14:33:57;101141.34;;;27.87;22.47
13456;BME280;6800;50.940;6.940;2023-04-30T14:37:58;101139.19;;;29.85;20.34
13456;BME280;6800;50.940;6.940;2023-04-30T14:42:00;101130.19;;;29.38;21.10
13456;BME280;6800;50.940;6.940;2023-04-30T14:46:01;101122.44;;;29.96;20.60
13456;BME280;6800;50.940;6.940;2023-04-30T14:50:03;101123.16;;;30.31;20.25
13456;BME280;6800;50.940;6.940;2023-04-30T14:54:05;101122.97;;;30.39;20.38
13456;BME280;6800;50.940;6.940;2023-04-30T14:58:06;101118.88;;;26.55;24.11
13456;BME280;6800;50.940;6.940;2023-04-30T15:02:08;101105.63;;;28.43;22.05
13456;BME280;6800;50.940;6.940;2023-04-30T15:06:09;101106.75;;;29.66;21.35
13456;BME280;6800;50.940;6.940;2023-04-30T15:10:11;101107.00;;;27.24;24.20
13456;BME280;6800;50.940;6.940;2023-04-30T15:14:12;101105.44;;;28.44;22.99
13456;BME280;6800;50.940;6.940;2023-04-30T15:18:14;101109.31;;;26.97;24.62
13456;BME280;6800;50.940;6.940;2023-04-30T15:22:15;101102.09;;;27.13;24.53
13456;BME280;6800;50.940;6.940;2023-04-30T15:26:17;101092.31;;;28.56;22.85
13456;BME280;6800;50.940;6.940;2023-04-30T15:30:19;101096.53;;;28.23;23.69
13456;BME280;6800;50.940;6.940;2023-04-30T15:34:22;101099.47;;;29.60;21.21
13456;BME280;6800;50.940;6.940;2023-04-30T15:38:23;101087.22;;;27.68;23.53
13456;BME280;6800;50.940;6.940;2023-04-30T15:42:24;101085.75;;;28.59;23.08
13456;BME280;6800;50.940;6.940;2023-04-30T15:46:26;101088.47;;;28.93;22.81
13456;BME280;6800;50.940;6.940;2023-04-30T15:50:28;101083.31;;;27.86;23.94
13456;BME280;6800;50.940;6.940;2023-04-30T15:54:30;101079.28;;;27.60;23.69
13456;BME280;6800;50.940;6.940;2023-04-30T15:58:31;101073.94;;;27.17;24.30
13456;BME280;6800;50.940;6.940;2023-04-30T16:02:32;101076.34;;;27.91;23.89
13456;BME280;6800;50.940;6.940;2023-04-30T16:06:36;101076.69;;;27.23;25.17
13456;BME280;6800;50.940;6.940;2023-04-30T16:10:37;101069.78;;;27.43;25.06
13456;BME280;6800;50.940;6.940;2023-04-30T16:14:39;101069.19;;;28.83;23.24
13456;BME280;6800;50.940;6.940;2023-04-30T16:18:41;101070.13;;;27.55;25.06
13456;BME280;6800;50.940;6.940;2023-04-30T16:22:42;101066.78;;;26.94;25.54
13456;BME280;6800;50.940;6.940;2023-04-30T16:26:44;101059.91;;;28.15;24.39
13456;BME280;6800;50.940;6.940;2023-04-30T16:30:45;101062.53;;;27.58;24.40
13456;BME280;6800;50.940;6.940;2023-04-30T16:34:47;101052.97;;;28.27;23.97
13456;BME280;6800;50.940;6.940;2023-04-30T16:38:48;101054.97;;;26.66;26.37
13456;BME280;6800;50.940;6.940;2023-04-30T16:42:49;101050.06;;;28.22;24.27
13456;BME280;6800;50.940;6.940;2023-04-30T16:46:51;101050.25;;;27.85;24.83
13456;BME280;6800;50.940;6.940;2023-04-30T16:50:52;101050.81;;;28.59;24.29
13456;BME280;6800;50.940;6.940;2023-04-30T16:54:53;101044.28;;;27.68;25.61
13456;BME280;6800;50.940;6.940;2023-04-30T16:58:55;101047.41;;;27.87;25.10
13456;BME280;6800;50.940;6.940;2023-04-30T17:02:56;101038.00;;;27.76;25.23
13456;BME280;6800;50.940;6.940;2023-04-30T17:06:58;101041.53;;;28.19;24.87
13456;BME280;6800;50.940;6.940;2023-04-30T17:11:00;101033.50;;;26.52;26.58
13456;BME280;6800;50.940;6.940;2023-04-30T17:15:02;101029.22;;;26.43;26.31
13456;BME280;6800;50.940;6.940;2023-04-30T17:19:04;101019.66;;;27.44;25.63
13456;BME280;6800;50.940;6.940;2023-04-30T17:23:05;101019.44;;;26.72;26.38
13456;BME280;6800;50.940;6.940;2023-04-30T17:27:07;101014.31;;;26.48;26.63
13456;BME280;6800;50.940;6.940;2023-04-30T17:31:09;101015.63;;;26.67;26.41
13456;BME280;6800;50.940;6.940;2023-04-30T17:35:10;101014.84;;;27.10;26.24
13456;BME280;6800;50.940;6.940;2023-04-30T17:39:12;101012.91;;;26.38;27.30
13456;BME280;6800;50.940;6.940;2023-04-30T17:43:13;101004.44;;;27.87;25.78
13456;BME280;6800;50.940;6.940;2023-04-30T17:47:14;101013.84;;;27.76;26.12
13456;BME280;6800;50.940;6.940;2023-04-30T17:51:16;101013.63;;;27.27;26.46
13456;BME280;6800;50.940;6.940;2023-04-30T17:55:18;101006.03;;;26.72;27.07
13456;BME280;6800;50.940;6.940;2023-04-30T17:59:19;101013.09;;;26.13;28.29
13456;BME280;6800;50.940;6.940;2023-04-30T18:03:21;101006.38;;;26.55;27.76
13456;BME280;6800;50.940;6.940;2023-04-30T18:07:22;101005.63;;;26.46;27.47
13456;BME280;6800;50.940;6.940;2023-04-30T18:11:24;101002.00;;;26.39;27.62
13456;BME280;6800;50.940;6.940;2023-04-30T18:15:28;101004.50;;;26.55;27.57
13456;BME280;6800;50.940;6.940;2023-04-30T18:19:30;101010.03;;;25.94;29.02
13456;BME280;6800;50.940;6.940;2023-04-30T18:23:32;101005.88;;;25.22;29.75
13456;BME280;6800;50.940;6.940;2023-04-30T18:27:33;100997.19;;;25.89;29.05
13456;BME280;6800;50.940;6.940;2023-04-30T18:31:35;101011.19;;;26.59;28.53
13456;BME280;6800;50.940;6.940;2023-04-30T18:35:37;101007.69;;;24.91;30.83
13456;BME280;6800;50.940;6.940;2023-04-30T18:39:39;100997.97;;;25.98;29.68
13456;BME280;6800;50.940;6.940;2023-04-30T18:43:41;101005.31;;;25.96;29.48
13456;BME280;6800;50.940;6.940;2023-04-30T18:47:43;101001.41;;;26.06;29.56
13456;BME280;6800;50.940;6.940;2023-04-30T18:51:44;101005.09;;;26.28;29.26
13456;BME280;6800;50.940;6.940;2023-04-30T18:55:46;101013.31;;;25.04;30.89
13456;BME280;6800;50.940;6.940;2023-04-30T18:59:48;101012.72;;;24.77;30.40
13456;BME280;6800;50.940;6.940;2023-04-30T19:03:49;101016.03;;;25.34;30.63
13456;BME280;6800;50.940;6.940;2023-04-30T19:07:51;101018.31;;;25.15;30.49
13456;BME280;6800;50.940;6.940;2023-04-30T19:11:52;101021.09;;;23.44;33.62
13456;BME280;6800;50.940;6.940;2023-04-30T19:15:54;101023.38;;;24.69;30.96
13456;BME280;6800;50.940;6.940;2023-04-30T19:19:56;101026.41;;;24.50;31.11
13456;BME280;6800;50.940;6.940;2023-04-30T19:23:59;101030.63;;;23.63;31.96
13456;BME280;6800;50.940;6.940;2023-04-30T19:28:00;101034.41;;;24.83;30.16
13456;BME280;6800;50.940;6.940;2023-04-30T19:32:01;101033.94;;;24.31;30.53
13456;BME280;6800;50.940;6.940;2023-04-30T19:36:04;101038.38;;;23.98;31.97
13456;BME280;6800;50.940;6.940;2023-04-30T19:40:07;101035.91;;;24.77;31.48
13456;BME280;6800;50.940;6.940;2023-04-30T19:44:10;101042.06;;;25.48;29.23
13456;BME280;6800;50.940;6.940;2023-04-30T19:48:12;101040.09;;;24.31;31.83
13456;BME280;6800;50.940;6.940;2023-04-30T19:52:14;101043.09;;;24.68;30.77
13456;BME280;6800;50.940;6.940;2023-04-30T19:56:16;101040.44;;;24.68;30.41
13456;BME280;6800;50.940;6.940;2023-04-30T20:00:18;101046.50;;;23.31;32.55
13456;BME280;6800;50.940;6.940;2023-04-30T20:04:19;101043.38;;;23.85;31.40
13456;BME280;6800;50.940;6.940;2023-04-30T20:08:21;101034.94;;;24.30;31.06
13456;BME280;6800;50.940;6.940;2023-04-30T20:12:23;101049.34;;;23.79;31.30
13456;BME280;6800;50.940;6.940;2023-04-30T20:16:24;101040.56;;;23.37;32.81
13456;BME280;6800;50.940;6.940;2023-04-30T20:20:27;101040.47;;;24.28;31.05
13456;BME280;6800;50.940;6.940;2023-04-30T20:24:29;101043.44;;;23.17;32.21
13456;BME280;6800;50.940;6.940;2023-04-30T20:28:30;101045.63;;;24.30;31.38
13456;BME280;6800;50.940;6.940;2023-04-30T20:32:32;101043.97;;;23.63;32.38
13456;BME280;6800;50.940;6.940;2023-04-30T20:36:34;101046.16;;;23.75;31.98
13456;BME280;6800;50.940;6.940;2023-04-30T20:40:36;101040.13;;;23.65;31.89
13456;BME280;6800;50.940;6.940;2023-04-30T20:44:40;101039.38;;;23.97;31.57
13456;BME280;6800;50.940;6.940;2023-04-30T20:48:41;101039.94;;;23.59;31.85
13456;BME280;6800;50.940;6.940;2023-04-30T20:52:43;101032.53;;;23.86;31.72
13456;BME280;6800;50.940;6.940;2023-04-30T20:56:44;101044.56;;;23.41;31.81
13456;BME280;6800;50.940;6.940;2023-04-30T21:00:48;101043.38;;;23.93;31.69
13456;BME280;6800;50.940;6.940;2023-04-30T21:04:50;101047.47;;;22.96;32.89
13456;BME280;6800;50.940;6.940;2023-04-30T21:08:51;101033.94;;;23.49;32.46
13456;BME280;6800;50.940;6.940;2023-04-30T21:12:53;101036.69;;;23.81;31.19
13456;BME280;6800;50.940;6.940;2023-04-30T21:16:54;101034.00;;;23.73;32.19
13456;BME280;6800;50.940;6.940;2023-04-30T21:21:03;101041.72;;;23.08;32.37
13456;BME280;6800;50.940;6.940;2023-04-30T21:25:05;101039.09;;;23.16;32.91
13456;BME280;6800;50.940;6.940;2023-04-30T21:29:08;101026.22;;;22.35;34.29
13456;BME280;6800;50.940;6.940;2023-04-30T21:33:09;101030.59;;;23.47;32.56
13456;BME280;6800;50.940;6.940;2023-04-30T21:37:10;101030.63;;;23.63;32.20
13456;BME280;6800;50.940;6.940;2023-04-30T21:41:13;101028.22;;;23.93;31.51